Time;durP1;ratioP1;P1;durP2;ratioP2;P2;SDS_P1;SDS_P2;PMS_P1;PMS_P2;Temp;Humidity;BMP_temperature;BMP_pressure;BME280_temperature;BME280_humidity;BME280_pressure;Samples;Min_cycle;Max_cycle;Signal;HPM_P1;HPM_P2
2023/12/28 00:01:28;;;;;;;26.90;10.10;;;;;;;11.29;59.77;101947.81;5086058;28;20016;-76
2023/12/28 00:03:53;;;;;;;10.95;7.80;;;;;;;11.34;59.54;101956.50;5086544;28;20089;-74
2023/12/28 00:06:19;;;;;;;18.27;7.43;;;;;;;11.36;59.55;101958.13;5068097;28;20498;-77
2023/12/28 00:08:44;;;;;;;18.10;8.40;;;;;;;11.33;59.20;101966.41;5087874;28;20120;-76
2023/12/28 00:11:10;;;;;;;14.75;7.80;;;;;;;11.38;59.36;101971.47;5088026;28;20020;-74
2023/12/28 00:13:35;;;;;;;12.63;7.35;;;;;;;11.30;59.18;101963.03;5087975;28;20400;-76
2023/12/28 00:16:01;;;;;;;15.40;8.30;;;;;;;11.39;59.17;101978.59;5087833;28;20099;-76
2023/12/28 00:18:26;;;;;;;14.43;8.07;;;;;;;11.37;59.39;101983.25;5087520;28;20522;-74
2023/12/28 00:20:52;;;;;;;23.80;10.23;;;;;;;11.38;59.27;101982.25;5089751;28;20467;-75
2023/12/28 00:23:20;;;;;;;26.52;10.10;;;;;;;11.36;58.66;101976.09;5090209;28;20111;-75
2023/12/28 00:25:45;;;;;;;32.30;11.43;;;;;;;11.37;59.27;101985.94;5090671;28;20546;-74
2023/12/28 00:28:11;;;;;;;16.23;10.38;;;;;;;11.33;59.28;101990.63;5091301;28;20024;-74
2023/12/28 00:30:36;;;;;;;17.25;8.68;;;;;;;11.12;59.45;101958.78;5090815;28;20495;-75
2023/12/28 00:33:02;;;;;;;23.70;10.10;;;;;;;11.12;59.92;101974.94;5090714;28;20016;-74
2023/12/28 00:35:27;;;;;;;16.95;9.32;;;;;;;11.17;59.59;101999.75;5090622;28;20020;-75
2023/12/28 00:37:53;;;;;;;15.38;7.95;;;;;;;11.07;59.38;101995.91;5090558;28;20560;-75
2023/12/28 00:40:19;;;;;;;15.93;8.63;;;;;;;11.12;60.14;102007.25;5090331;28;20028;-76
2023/12/28 00:42:44;;;;;;;15.23;7.90;;;;;;;11.12;59.81;101993.81;5090751;28;20198;-76
2023/12/28 00:45:10;;;;;;;12.45;8.25;;;;;;;10.97;59.39;101968.69;5090453;28;20039;-76
2023/12/28 00:47:35;;;;;;;14.20;7.38;;;;;;;11.06;59.95;101994.19;5090597;28;20551;-75
2023/12/28 00:50:01;;;;;;;19.50;7.80;;;;;;;10.89;59.78;101965.59;5090421;28;20082;-76
2023/12/28 00:52:26;;;;;;;13.15;8.45;;;;;;;10.93;60.43;101984.16;5090070;28;20024;-75
2023/12/28 00:54:52;;;;;;;16.75;9.55;;;;;;;10.87;60.24;101989.94;5090315;28;20030;-75
2023/12/28 00:57:17;;;;;;;15.82;9.18;;;;;;;10.87;60.72;101986.38;5089996;28;20102;-75
2023/12/28 00:59:43;;;;;;;19.50;7.60;;;;;;;10.87;60.45;101989.94;5090330;28;20477;-76
2023/12/28 01:02:09;;;;;;;19.60;8.52;;;;;;;10.85;60.58;101981.09;5090092;28;20028;-74
2023/12/28 01:04:35;;;;;;;14.52;7.70;;;;;;;10.83;60.55;101985.69;5090305;28;20501;-75
2023/12/28 01:07:02;;;;;;;16.15;8.10;;;;;;;10.86;60.58;101992.69;5090108;28;20028;-74
2023/12/28 01:09:28;;;;;;;11.70;8.02;;;;;;;10.85;60.65;101994.53;5090334;28;20043;-75
2023/12/28 01:11:53;;;;;;;16.50;9.50;;;;;;;10.70;60.75;101976.59;5094769;28;20523;-74
2023/12/28 01:14:19;;;;;;;28.65;9.10;;;;;;;10.76;60.88;101975.41;5092604;28;20024;-75
2023/12/28 01:16:45;;;;;;;29.00;10.13;;;;;;;10.64;60.90;101982.34;5093563;28;20060;-75
2023/12/28 01:19:10;;;;;;;20.98;8.00;;;;;;;10.56;60.69;101978.41;5092471;28;20502;-75
2023/12/28 01:21:36;;;;;;;27.52;9.77;;;;;;;10.36;61.11;101955.41;5087360;28;20044;-76
2023/12/28 01:24:02;;;;;;;11.63;7.10;;;;;;;10.42;61.01;101967.59;5089658;28;20024;-75
2023/12/28 01:26:27;;;;;;;22.20;8.25;;;;;;;10.41;61.43;101973.94;5089866;28;20052;-74
2023/12/28 01:28:53;;;;;;;11.20;7.43;;;;;;;10.34;61.43;101970.75;5089922;28;20105;-75
2023/12/28 01:31:18;;;;;;;14.93;9.02;;;;;;;10.30;61.59;101961.97;5089906;28;20496;-74
2023/12/28 01:33:44;;;;;;;11.55;7.82;;;;;;;10.19;61.86;101958.19;5087272;28;20057;-75
2023/12/28 01:36:19;;;;;;;10.73;6.95;;;;;;;10.27;61.86;101966.69;5089593;28;20475;-76
2023/12/28 01:38:45;;;;;;;22.58;7.47;;;;;;;10.26;62.04;101975.72;5089856;28;20035;-77
2023/12/28 01:41:12;;;;;;;17.55;7.05;;;;;;;10.25;62.05;101955.16;5089574;28;20032;-76
2023/12/28 01:43:38;;;;;;;17.92;8.52;;;;;;;10.10;62.07;101935.38;5089715;28;20393;-75
2023/12/28 01:46:05;;;;;;;22.83;9.68;;;;;;;10.19;61.89;101955.50;5090495;28;20123;-75
2023/12/28 01:48:32;;;;;;;24.55;9.43;;;;;;;10.10;62.03;101964.94;5089162;28;20024;-75
2023/12/28 01:50:58;;;;;;;14.85;8.15;;;;;;;10.16;61.88;101969.13;5088907;28;20028;-75
2023/12/28 01:53:24;;;;;;;25.23;8.07;;;;;;;10.13;62.15;101970.19;5089316;28;20032;-75
2023/12/28 01:55:50;;;;;;;21.75;8.68;;;;;;;10.07;62.10;101969.63;5089619;28;20113;-74
2023/12/28 01:58:16;;;;;;;27.63;9.15;;;;;;;10.05;62.42;101972.44;5089294;28;20020;-76
2023/12/28 02:00:42;;;;;;;17.67;8.00;;;;;;;10.02;62.51;101969.03;5089267;28;20028;-77
2023/12/28 02:03:08;;;;;;;20.35;8.65;;;;;;;9.77;62.68;101935.53;5092736;28;20036;-76
2023/12/28 02:05:34;;;;;;;11.90;6.03;;;;;;;9.97;62.58;101971.13;5090000;28;20040;-75
2023/12/28 02:08:00;;;;;;;11.88;6.90;;;;;;;9.91;62.31;101968.81;5088729;28;20103;-75
2023/12/28 02:10:26;;;;;;;19.60;6.95;;;;;;;9.96;62.64;101972.09;5069309;28;20120;-76
2023/12/28 02:12:53;;;;;;;13.38;6.68;;;;;;;9.98;62.64;101970.16;5103205;28;20043;-75
2023/12/28 02:15:19;;;;;;;13.88;7.57;;;;;;;10.04;62.39;101975.19;5088813;28;20024;-75
2023/12/28 02:17:55;;;;;;;12.30;7.07;;;;;;;10.11;61.89;101984.63;5088686;28;20052;-73
2023/12/28 02:20:22;;;;;;;28.92;9.38;;;;;;;10.10;62.00;101980.19;5088632;28;20074;-74
2023/12/28 02:22:48;;;;;;;27.85;8.95;;;;;;;10.10;61.85;101969.44;5088365;28;20411;-74
2023/12/28 02:25:14;;;;;;;15.50;7.10;;;;;;;10.12;61.90;101981.00;5088358;28;20048;-74
2023/12/28 02:27:41;;;;;;;14.48;6.75;;;;;;;10.13;61.75;101985.41;5088654;28;20024;-75
2023/12/28 02:30:08;;;;;;;13.73;6.47;;;;;;;10.13;61.88;101989.00;5088347;28;20395;-75
2023/12/28 02:32:44;;;;;;;12.90;6.80;;;;;;;10.11;61.62;101998.06;5088104;28;20052;-75
2023/12/28 02:35:34;;;;;;;28.17;7.13;;;;;;;10.10;61.79;101996.34;5087936;28;20140;-75
2023/12/28 02:38:05;;;;;;;18.63;7.57;;;;;;;9.93;61.99;101967.75;5088418;28;20181;-74
2023/12/28 02:40:37;;;;;;;16.33;7.18;;;;;;;10.05;61.42;101982.31;5088229;28;20027;-75
2023/12/28 02:43:04;;;;;;;33.95;17.00;;;;;;;10.10;61.75;101990.97;5088139;28;20093;-75
2023/12/28 02:45:29;;;;;;;20.60;8.57;;;;;;;10.13;61.77;101999.75;5088208;28;20111;-76
2023/12/28 02:47:55;;;;;;;23.88;8.88;;;;;;;9.87;61.84;101978.84;5087991;28;20111;-76
2023/12/28 02:50:20;;;;;;;13.68;8.48;;;;;;;9.80;62.20;101981.03;5088469;28;20028;-73
2023/12/28 02:52:46;;;;;;;17.40;9.88;;;;;;;9.94;62.38;101998.19;5089341;28;20045;-74
2023/12/28 02:55:11;;;;;;;15.15;8.00;;;;;;;9.98;62.07;101991.66;5092409;28;20032;-75
2023/12/28 02:57:38;;;;;;;21.67;10.15;;;;;;;9.93;61.96;101991.06;5090236;28;20039;-76
2023/12/28 03:00:08;;;;;;;18.88;8.95;;;;;;;9.83;62.07;101975.47;5087788;28;20028;-73
2023/12/28 03:02:37;;;;;;;17.83;8.82;;;;;;;9.97;62.34;102006.09;5088062;28;20032;-76
2023/12/28 03:05:05;;;;;;;13.55;8.00;;;;;;;10.01;62.14;102002.25;5068504;28;20124;-76
2023/12/28 03:07:31;;;;;;;13.55;8.82;;;;;;;9.97;61.93;102000.69;5087833;28;20030;-75
2023/12/28 03:09:57;;;;;;;24.23;8.88;;;;;;;9.76;61.57;101970.50;5087587;28;20116;-76
2023/12/28 03:12:22;;;;;;;17.55;8.65;;;;;;;9.79;61.83;101998.09;5087700;28;20096;-76
2023/12/28 03:14:48;;;;;;;18.67;8.20;;;;;;;9.70;62.24;102001.28;5087607;28;20073;-76
2023/12/28 03:17:13;;;;;;;17.75;10.05;;;;;;;9.62;62.36;102008.91;5087516;28;20534;-75
2023/12/28 03:19:39;;;;;;;26.58;15.65;;;;;;;9.61;62.42;101998.25;5087866;28;20431;-76
2023/12/28 03:22:04;;;;;;;19.80;10.27;;;;;;;9.61;62.87;102004.50;5087638;28;20032;-75
2023/12/28 03:24:30;;;;;;;24.48;8.55;;;;;;;9.59;62.68;101992.09;5084950;28;20043;-75
2023/12/28 03:26:55;;;;;;;13.27;8.02;;;;;;;9.57;62.69;101980.59;5087115;28;20512;-75
2023/12/28 03:29:21;;;;;;;15.95;8.18;;;;;;;9.57;62.32;101981.44;5087721;28;20055;-75
2023/12/28 03:31:46;;;;;;;26.23;8.25;;;;;;;9.55;62.58;101986.03;5087213;28;20017;-75
2023/12/28 03:34:12;;;;;;;18.05;9.13;;;;;;;9.59;62.24;101990.28;5087593;28;20444;-75
2023/12/28 03:36:37;;;;;;;13.57;8.07;;;;;;;9.39;62.20;101966.34;5087653;28;20111;-76
2023/12/28 03:39:06;;;;;;;81.15;13.25;;;;;;;9.49;62.55;101983.69;5087881;28;20452;-76
2023/12/28 03:41:32;;;;;;;38.50;15.90;;;;;;;9.53;62.62;101996.00;5085139;28;20040;-76
2023/12/28 03:43:58;;;;;;;26.20;11.75;;;;;;;9.56;62.39;101995.84;5088122;28;20097;-76
2023/12/28 03:46:23;;;;;;;24.73;8.65;;;;;;;9.56;62.52;102003.00;5086527;28;20021;-74
2023/12/28 03:48:49;;;;;;;27.25;8.70;;;;;;;9.58;62.56;101993.03;5087538;28;20028;-76
2023/12/28 03:51:15;;;;;;;18.02;7.90;;;;;;;9.52;62.25;101988.88;5087626;28;20035;-75
2023/12/28 03:53:41;;;;;;;26.83;9.45;;;;;;;9.39;62.20;101982.44;5085878;28;20451;-76
2023/12/28 03:56:07;;;;;;;25.83;10.15;;;;;;;9.43;62.42;101978.66;5087170;28;20032;-77
2023/12/28 03:58:32;;;;;;;29.08;9.25;;;;;;;9.40;62.46;102000.31;5087448;28;20468;-75
2023/12/28 04:00:58;;;;;;;31.20;9.88;;;;;;;9.34;62.74;101984.53;5088536;28;20504;-74
2023/12/28 04:03:24;;;;;;;16.30;8.00;;;;;;;9.31;62.45;101979.31;5091032;28;20140;-76
2023/12/28 04:05:51;;;;;;;18.45;8.57;;;;;;;9.32;62.73;101986.44;5091297;28;20042;-74
2023/12/28 04:08:16;;;;;;;13.32;8.23;;;;;;;9.18;62.41;101978.25;5091218;28;20108;-74
2023/12/28 04:10:42;;;;;;;16.85;8.00;;;;;;;9.23;63.18;101992.31;5090800;28;20106;-73
2023/12/28 04:13:07;;;;;;;28.30;10.00;;;;;;;9.17;63.25;101973.84;5091021;28;20032;-74
2023/12/28 04:15:33;;;;;;;21.23;8.68;;;;;;;9.22;63.21;101974.47;5091082;28;20065;-76
2023/12/28 04:17:59;;;;;;;24.85;8.15;;;;;;;9.02;63.10;101934.44;5090834;28;20030;-76
2023/12/28 04:20:25;;;;;;;26.90;11.68;;;;;;;9.24;63.05;101981.47;5091089;28;20032;-76
2023/12/28 04:22:50;;;;;;;21.73;9.13;;;;;;;9.12;63.34;101978.56;5090863;28;20169;-75
2023/12/28 04:25:18;;;;;;;20.27;9.73;;;;;;;9.12;63.27;101974.09;5091025;28;20427;-75
2023/12/28 04:27:44;;;;;;;18.98;8.57;;;;;;;9.12;63.21;101979.44;5090660;28;20040;-76
2023/12/28 04:30:12;;;;;;;34.88;11.90;;;;;;;9.12;63.38;101967.84;5091606;28;20097;-75
2023/12/28 04:32:39;;;;;;;16.58;10.32;;;;;;;9.14;63.77;101974.00;5090859;28;20060;-75
2023/12/28 04:35:05;;;;;;;19.55;11.57;;;;;;;9.15;63.58;101983.78;5092725;28;20420;-74
2023/12/28 04:37:32;;;;;;;22.52;11.32;;;;;;;9.08;63.71;101971.66;5095219;28;20038;-75
2023/12/28 04:39:58;;;;;;;18.67;10.00;;;;;;;8.89;63.80;101957.50;5090316;28;20047;-74
2023/12/28 04:42:24;;;;;;;22.50;11.25;;;;;;;9.00;64.64;101979.25;5090591;28;20081;-75
2023/12/28 04:44:49;;;;;;;20.48;12.15;;;;;;;9.00;64.22;101979.25;5090482;28;20032;-75
2023/12/28 04:47:15;;;;;;;25.40;12.13;;;;;;;8.93;64.54;101967.13;5090655;28;20244;-73
2023/12/28 04:49:40;;;;;;;25.83;10.82;;;;;;;9.03;64.41;101974.56;5090231;28;20694;-74
2023/12/28 04:52:06;;;;;;;19.58;11.82;;;;;;;9.01;63.99;101978.28;5090192;28;20027;-76
2023/12/28 04:54:33;;;;;;;37.65;12.02;;;;;;;8.91;64.13;101983.28;5090075;28;20412;-75
2023/12/28 04:56:58;;;;;;;20.00;10.88;;;;;;;8.85;63.58;101988.97;5087793;28;20120;-76
2023/12/28 04:59:24;;;;;;;42.92;13.52;;;;;;;8.80;63.86;101979.44;5090324;28;20498;-78
2023/12/28 05:01:49;;;;;;;28.60;11.98;;;;;;;8.82;64.12;101977.53;5090397;28;20020;-74
2023/12/28 05:04:15;;;;;;;30.27;12.45;;;;;;;8.68;64.28;101952.28;5090107;28;20028;-74
2023/12/28 05:06:40;;;;;;;20.52;12.55;;;;;;;8.72;64.12;101953.88;5089982;28;20396;-75
2023/12/28 05:09:06;;;;;;;25.58;12.52;;;;;;;8.73;63.95;101962.78;5090118;28;20036;-76
2023/12/28 05:11:31;;;;;;;25.60;12.43;;;;;;;8.88;64.53;101985.25;5089564;28;20017;-74
2023/12/28 05:13:57;;;;;;;20.27;12.45;;;;;;;8.89;64.18;101979.81;5090060;28;20028;-75
2023/12/28 05:16:22;;;;;;;25.70;13.60;;;;;;;8.90;64.38;101981.53;5090184;28;20035;-76
2023/12/28 05:18:48;;;;;;;23.20;10.85;;;;;;;8.88;64.34;101974.53;5090013;28;20036;-77
2023/12/28 05:21:14;;;;;;;30.90;11.23;;;;;;;8.91;64.67;101969.00;5090350;28;20036;-76
2023/12/28 05:23:40;;;;;;;24.70;11.10;;;;;;;8.97;64.76;101980.28;5088449;28;20030;-75
2023/12/28 05:26:06;;;;;;;26.55;12.07;;;;;;;9.00;64.54;101981.91;5091568;28;20064;-76
2023/12/28 05:28:32;;;;;;;27.73;12.48;;;;;;;8.96;64.50;101977.69;5094493;28;20032;-76
2023/12/28 05:31:00;;;;;;;40.78;14.60;;;;;;;8.98;64.18;101981.16;5092028;28;20124;-75
2023/12/28 05:33:26;;;;;;;35.17;12.65;;;;;;;8.95;63.51;101984.00;5089742;28;20152;-74
2023/12/28 05:35:52;;;;;;;64.60;15.57;;;;;;;8.87;63.55;101978.19;5089615;28;20470;-75
2023/12/28 05:38:17;;;;;;;35.03;11.95;;;;;;;8.90;63.63;102002.16;5087022;28;20411;-74
2023/12/28 05:40:44;;;;;;;58.42;13.48;;;;;;;8.86;63.67;101998.75;5089521;28;20028;-74
2023/12/28 05:43:10;;;;;;;59.50;15.02;;;;;;;8.85;63.31;102004.19;5089582;28;20173;-74
2023/12/28 05:45:36;;;;;;;57.17;13.85;;;;;;;8.77;63.29;101992.03;5089221;28;20115;-76
2023/12/28 05:48:02;;;;;;;63.08;16.70;;;;;;;8.73;63.63;101992.28;5087973;28;20618;-77
2023/12/28 05:50:27;;;;;;;100.82;17.25;;;;;;;8.66;63.93;101996.22;5089160;28;20412;-75
2023/12/28 05:52:52;;;;;;;76.63;16.58;;;;;;;8.63;63.66;101996.38;5089038;28;20024;-75
2023/12/28 05:55:18;;;;;;;64.05;17.38;;;;;;;8.60;64.31;102000.09;5089017;28;20028;-75
2023/12/28 05:57:44;;;;;;;92.53;18.98;;;;;;;8.60;64.21;101997.41;5089124;28;20024;-76
2023/12/28 06:00:10;;;;;;;115.57;22.50;;;;;;;8.58;63.89;101983.25;5089150;28;20039;-75
2023/12/28 06:02:35;;;;;;;52.72;18.90;;;;;;;8.42;63.84;101959.97;5089032;28;20020;-75
2023/12/28 06:05:01;;;;;;;70.28;27.92;;;;;;;8.57;64.26;101994.91;5089047;28;20032;-77
2023/12/28 06:07:27;;;;;;;42.72;19.02;;;;;;;8.52;64.14;102005.00;5088992;28;20582;-76
2023/12/28 06:09:52;;;;;;;56.15;17.55;;;;;;;8.33;64.31;101963.97;5089368;28;20020;-76
2023/12/28 06:12:17;;;;;;;45.75;16.77;;;;;;;8.58;64.40;101998.44;5089438;28;20107;-77
2023/12/28 06:14:43;;;;;;;58.72;17.75;;;;;;;8.60;64.95;102007.28;5089391;28;20387;-76
2023/12/28 06:17:08;;;;;;;123.43;26.63;;;;;;;8.55;64.63;101994.13;5090537;28;20027;-74
2023/12/28 06:19:34;;;;;;;89.38;23.98;;;;;;;8.56;64.85;101984.28;5094547;28;20036;-75
2023/12/28 06:22:00;;;;;;;69.32;21.67;;;;;;;8.61;64.31;101993.81;5091320;28;20024;-78
2023/12/28 06:24:25;;;;;;;68.80;19.13;;;;;;;8.66;64.42;102009.63;5089521;28;20395;-76
2023/12/28 06:26:51;;;;;;;70.63;18.55;;;;;;;8.77;65.04;102014.47;5088622;28;20047;-77
2023/12/28 06:29:16;;;;;;;59.53;18.42;;;;;;;8.57;64.92;101954.69;5088697;28;20020;-75
2023/12/28 06:31:41;;;;;;;107.57;23.70;;;;;;;8.83;64.63;102012.34;5087278;28;20094;-76
2023/12/28 06:34:07;;;;;;;89.32;21.90;;;;;;;8.90;65.08;102005.69;5088520;28;20024;-78
2023/12/28 06:36:33;;;;;;;84.43;19.98;;;;;;;9.01;65.25;102013.19;5088809;28;20036;-76
2023/12/28 06:38:59;;;;;;;82.78;20.50;;;;;;;9.09;64.68;102010.94;5088483;28;20024;-77
2023/12/28 06:41:25;;;;;;;86.57;18.83;;;;;;;9.12;64.58;102005.41;5088610;28;20050;-75
2023/12/28 06:43:51;;;;;;;47.10;18.17;;;;;;;9.14;64.41;101998.16;5088387;28;20484;-77
2023/12/28 06:46:17;;;;;;;102.28;22.48;;;;;;;9.20;64.62;101992.47;5088388;28;20114;-75
2023/12/28 06:48:43;;;;;;;86.63;21.70;;;;;;;9.31;64.44;102011.53;5088385;28;20038;-75
2023/12/28 06:51:19;;;;;;;78.05;20.65;;;;;;;9.35;64.54;101996.13;5088090;28;20119;-75
2023/12/28 06:53:45;;;;;;;78.70;20.83;;;;;;;9.42;64.27;101990.34;5088374;28;20027;-76
2023/12/28 06:56:10;;;;;;;66.40;20.67;;;;;;;9.48;64.35;101995.38;5088037;28;20028;-75
2023/12/28 06:58:36;;;;;;;90.03;24.10;;;;;;;9.56;64.14;101998.50;5088542;28;20100;-74
2023/12/28 07:01:05;;;;;;;84.18;21.15;;;;;;;9.65;64.47;102005.19;5087902;28;20460;-75
2023/12/28 07:03:32;;;;;;;92.18;24.38;;;;;;;9.73;64.55;101998.44;5087770;28;20110;-76
2023/12/28 07:05:58;;;;;;;71.43;18.75;;;;;;;9.73;64.32;101981.44;5087703;28;20114;-75
2023/12/28 07:08:24;;;;;;;85.95;23.10;;;;;;;9.90;64.23;101983.19;5087988;28;20044;-77
2023/12/28 07:10:50;;;;;;;88.80;20.13;;;;;;;10.02;64.36;101982.47;5088483;28;20054;-75
2023/12/28 07:13:15;;;;;;;94.05;21.52;;;;;;;10.10;64.09;101996.34;5085637;28;20039;-76
2023/12/28 07:15:41;;;;;;;102.90;24.17;;;;;;;10.16;64.27;101987.94;5089517;28;20028;-75
2023/12/28 07:18:06;;;;;;;78.72;21.13;;;;;;;10.23;64.06;101981.28;5088339;28;20027;-75
2023/12/28 07:20:32;;;;;;;59.78;20.92;;;;;;;10.29;63.87;101965.66;5088006;28;20036;-75
2023/12/28 07:22:57;;;;;;;48.50;16.45;;;;;;;10.47;63.77;101974.44;5087742;28;20031;-76
2023/12/28 07:25:23;;;;;;;68.40;20.23;;;;;;;10.57;63.86;101986.41;5086204;28;20056;-74
2023/12/28 07:27:48;;;;;;;50.70;19.77;;;;;;;10.59;63.56;101972.84;5088113;28;20039;-76
2023/12/28 07:30:16;;;;;;;81.43;21.13;;;;;;;10.77;63.22;101987.88;5087621;28;20549;-74
2023/12/28 07:32:42;;;;;;;53.22;17.95;;;;;;;10.84;62.69;101986.56;5087983;28;20025;-76
2023/12/28 07:35:08;;;;;;;66.65;21.92;;;;;;;10.97;62.28;101995.63;5094595;28;20080;-76
2023/12/28 07:37:34;;;;;;;69.18;22.67;;;;;;;11.03;62.18;101989.84;5094330;28;20028;-74
2023/12/28 07:40:01;;;;;;;75.78;21.35;;;;;;;11.16;61.40;102000.75;5094450;28;20027;-76
2023/12/28 07:42:27;;;;;;;84.18;23.92;;;;;;;11.25;61.25;101994.78;5094148;28;20545;-75
2023/12/28 07:44:53;;;;;;;97.45;26.20;;;;;;;11.32;61.35;101990.72;5091851;28;20036;-76
2023/12/28 07:47:18;;;;;;;114.30;27.25;;;;;;;11.39;60.66;101997.47;5094302;28;20020;-75
2023/12/28 07:49:44;;;;;;;88.85;26.30;;;;;;;11.39;61.04;101992.06;5094171;28;20133;-77
2023/12/28 07:52:09;;;;;;;88.88;28.95;;;;;;;11.40;61.24;102001.91;5094349;28;20524;-74
2023/12/28 07:54:35;;;;;;;105.20;30.80;;;;;;;11.46;60.57;102009.59;5094348;28;20128;-73
2023/12/28 07:57:00;;;;;;;94.10;29.08;;;;;;;11.40;60.60;101980.34;5094576;28;20629;-73
2023/12/28 07:59:26;;;;;;;93.63;28.48;;;;;;;11.55;60.81;101982.06;5094078;28;20031;-77
2023/12/28 08:01:51;;;;;;;111.13;30.88;;;;;;;11.75;60.20;102003.22;5094477;28;20031;-75
2023/12/28 08:04:17;;;;;;;82.05;27.80;;;;;;;11.71;59.92;102009.78;5094468;28;20039;-74
2023/12/28 08:06:42;;;;;;;75.13;32.50;;;;;;;11.78;60.37;102010.25;5094247;28;20520;-75
2023/12/28 08:09:08;;;;;;;66.38;29.63;;;;;;;11.77;60.44;102020.16;5094271;28;20059;-75
2023/12/28 08:11:34;;;;;;;167.52;36.28;;;;;;;11.91;60.46;102017.47;5091627;28;20089;-76
2023/12/28 08:14:00;;;;;;;60.70;20.70;;;;;;;11.90;59.59;101998.66;5093965;28;20451;-74
2023/12/28 08:16:26;;;;;;;48.95;17.75;;;;;;;12.02;59.45;102005.13;5093894;28;20027;-75
2023/12/28 08:18:51;;;;;;;69.45;18.08;;;;;;;12.10;59.72;102000.94;5093746;28;20024;-75
2023/12/28 08:21:17;;;;;;;33.85;14.15;;;;;;;12.07;59.15;101989.50;5093659;28;20108;-74
2023/12/28 08:23:43;;;;;;;21.00;12.27;;;;;;;12.12;58.31;101987.34;5094018;28;20028;-73
2023/12/28 08:26:10;;;;;;;21.92;13.15;;;;;;;12.13;58.24;101994.47;5094028;28;20589;-76
2023/12/28 08:28:36;;;;;;;27.95;13.45;;;;;;;12.18;58.42;101998.59;5093735;28;20032;-75
2023/12/28 08:31:02;;;;;;;35.78;13.85;;;;;;;12.32;57.65;101995.00;5093523;28;20080;-75
2023/12/28 08:33:27;;;;;;;27.95;12.43;;;;;;;12.34;57.44;101998.44;5093639;28;20024;-75
2023/12/28 08:35:53;;;;;;;35.85;15.35;;;;;;;12.48;57.76;102001.06;5091474;28;20495;-75
2023/12/28 08:38:19;;;;;;;26.88;12.32;;;;;;;12.33;57.33;101977.81;5093589;28;20024;-76
2023/12/28 08:40:44;;;;;;;32.05;13.52;;;;;;;12.50;56.94;101986.53;5093684;28;20513;-76
2023/12/28 08:43:10;;;;;;;22.58;12.00;;;;;;;12.61;56.90;101980.38;5093539;28;20059;-76
2023/12/28 08:45:36;;;;;;;16.42;10.80;;;;;;;12.60;56.60;101978.66;5091090;28;20032;-74
2023/12/28 08:48:02;;;;;;;34.15;12.27;;;;;;;12.56;56.83;101977.16;5088279;28;20113;-75
2023/12/28 08:50:27;;;;;;;25.15;11.45;;;;;;;12.36;57.13;101938.00;5090355;28;20456;-75
2023/12/28 08:52:53;;;;;;;42.63;12.63;;;;;;;12.71;57.32;101970.69;5074144;28;20074;-76
2023/12/28 08:55:18;;;;;;;20.13;11.30;;;;;;;12.76;57.03;101963.13;5094049;28;20472;-76
2023/12/28 08:57:44;;;;;;;26.52;12.43;;;;;;;13.05;56.65;101964.69;5090819;28;20020;-75
2023/12/28 09:00:11;;;;;;;23.35;12.85;;;;;;;13.10;56.10;101953.56;5089998;28;20115;-75
2023/12/28 09:02:37;;;;;;;39.55;12.70;;;;;;;13.00;56.18;101949.75;5090204;28;20107;-78
2023/12/28 09:05:03;;;;;;;29.92;11.93;;;;;;;12.92;56.98;101941.31;5090157;28;20039;-77
2023/12/28 09:07:28;;;;;;;31.45;14.30;;;;;;;13.02;56.99;101932.47;5090339;28;20020;-75
2023/12/28 09:09:54;;;;;;;45.80;14.40;;;;;;;13.25;56.84;101935.38;5089914;28;20462;-76
2023/12/28 09:12:19;;;;;;;46.28;13.98;;;;;;;13.34;56.56;101913.97;5089927;28;20020;-77
2023/12/28 09:14:45;;;;;;;97.53;60.95;;;;;;;13.36;56.86;101930.09;5089101;28;20031;-74
2023/12/28 09:17:11;;;;;;;39.35;17.83;;;;;;;13.06;56.44;101901.56;5089785;28;20848;-75
2023/12/28 09:19:37;;;;;;;28.02;12.45;;;;;;;13.35;56.46;101925.66;5089914;28;20082;-76
2023/12/28 09:22:03;;;;;;;36.63;14.43;;;;;;;13.46;56.45;101898.69;5089680;28;20028;-76
2023/12/28 09:24:29;;;;;;;35.58;12.63;;;;;;;13.59;56.65;101899.53;5089775;28;20024;-75
2023/12/28 09:26:54;;;;;;;26.33;11.93;;;;;;;13.64;56.40;101900.91;5089596;28;20432;-77
2023/12/28 09:29:20;;;;;;;27.10;13.82;;;;;;;13.63;56.35;101888.41;5089748;28;20027;-76
2023/12/28 09:31:46;;;;;;;24.63;13.82;;;;;;;13.70;56.33;101901.47;5088153;28;20428;-76
2023/12/28 09:34:11;;;;;;;31.65;13.85;;;;;;;13.49;56.78;101898.47;5089570;28;20028;-76
2023/12/28 09:36:37;;;;;;;33.17;13.55;;;;;;;13.59;57.17;101880.63;5089767;28;20028;-74
2023/12/28 09:39:03;;;;;;;32.63;13.82;;;;;;;13.73;56.44;101891.25;5089931;28;20020;-75
2023/12/28 09:41:34;;;;;;;27.52;12.35;;;;;;;13.76;56.38;101882.06;5089492;28;20149;-74
2023/12/28 09:44:11;;;;;;;28.00;12.93;;;;;;;13.78;57.25;101878.28;5091819;28;20024;-76
2023/12/28 09:46:38;;;;;;;77.85;19.45;;;;;;;13.52;57.88;101877.50;5092943;28;20043;-75
2023/12/28 09:49:04;;;;;;;20.17;11.48;;;;;;;13.43;58.23;101866.50;5089631;28;20185;-75
2023/12/28 09:51:30;;;;;;;29.73;12.25;;;;;;;13.30;59.35;101861.13;5089549;28;20726;-73
2023/12/28 09:53:56;;;;;;;29.98;10.98;;;;;;;13.20;60.01;101854.69;5089321;28;20036;-74
2023/12/28 09:56:23;;;;;;;77.97;19.88;;;;;;;13.27;60.27;101857.81;5088531;28;20096;-75
2023/12/28 09:58:53;;;;;;;25.92;12.60;;;;;;;13.21;60.42;101834.78;5088749;28;20031;-76
2023/12/28 10:01:19;;;;;;;39.05;13.90;;;;;;;13.23;61.08;101854.47;5089263;28;20551;-75
2023/12/28 10:03:45;;;;;;;42.08;14.07;;;;;;;13.44;60.58;101841.22;5069687;28;20380;-77
2023/12/28 10:06:10;;;;;;;45.67;13.32;;;;;;;13.56;60.16;101837.59;5088993;28;20127;-75
2023/12/28 10:08:36;;;;;;;21.63;11.88;;;;;;;13.48;60.23;101815.69;5089098;28;20039;-76
2023/12/28 10:11:03;;;;;;;32.45;11.57;;;;;;;13.62;60.47;101829.03;5088668;28;20622;-75
2023/12/28 10:13:28;;;;;;;50.72;12.70;;;;;;;13.53;60.80;101835.97;5088929;28;20480;-75
2023/12/28 10:15:58;;;;;;;24.92;12.10;;;;;;;13.23;61.59;101837.38;5088855;28;20024;-74
2023/12/28 10:18:24;;;;;;;41.78;13.25;;;;;;;13.07;62.73;101843.88;5088923;28;20046;-75
2023/12/28 10:20:53;;;;;;;23.67;13.02;;;;;;;13.08;62.62;101824.03;5088596;28;20476;-75
2023/12/28 10:23:21;;;;;;;16.95;11.63;;;;;;;13.07;62.97;101835.78;5088505;28;20069;-75
2023/12/28 10:25:46;;;;;;;23.15;11.13;;;;;;;13.31;62.53;101829.56;5089255;28;20076;-77
2023/12/28 10:28:18;;;;;;;27.27;13.63;;;;;;;13.31;62.32;101819.63;5088687;28;20024;-75
2023/12/28 10:30:44;;;;;;;40.83;13.70;;;;;;;13.26;62.05;101816.41;5090255;28;20625;-75
2023/12/28 10:33:09;;;;;;;33.22;11.13;;;;;;;13.12;62.69;101810.31;5089346;28;20107;-76
2023/12/28 10:35:35;;;;;;;19.73;9.63;;;;;;;13.14;62.23;101816.44;5089263;28;20381;-80
2023/12/28 10:38:04;;;;;;;25.77;11.20;;;;;;;13.12;61.85;101819.25;5089332;28;20089;-76
2023/12/28 10:40:36;;;;;;;28.33;10.40;;;;;;;12.96;62.32;101814.09;5086088;28;20801;-75
2023/12/28 10:43:06;;;;;;;42.35;19.70;;;;;;;12.97;63.01;101809.53;5085550;28;20048;-74
2023/12/28 10:45:36;;;;;;;15.55;9.98;;;;;;;12.71;64.47;101806.03;5085737;28;20647;-75
2023/12/28 10:48:09;;;;;;;28.77;12.73;;;;;;;12.66;65.75;101805.47;5085521;28;20063;-75
2023/12/28 10:50:49;;;;;;;32.72;12.18;;;;;;;12.47;66.30;101795.16;5085697;28;20052;-76
2023/12/28 10:53:36;;;;;;;17.33;10.85;;;;;;;12.68;66.37;101797.28;5085301;28;20028;-76
2023/12/28 10:56:16;;;;;;;24.38;12.18;;;;;;;12.76;66.54;101795.75;5085494;28;20046;-78
2023/12/28 10:58:41;;;;;;;26.35;13.00;;;;;;;12.78;66.61;101766.78;5085434;28;20028;-76
2023/12/28 11:01:11;;;;;;;35.17;11.77;;;;;;;12.78;66.15;101774.88;5085418;28;20396;-75
2023/12/28 11:03:41;;;;;;;35.88;13.05;;;;;;;12.83;66.41;101791.63;5085370;28;20116;-76
2023/12/28 11:06:09;;;;;;;34.83;11.85;;;;;;;12.75;66.61;101777.81;5085154;28;20093;-76
2023/12/28 11:08:36;;;;;;;63.33;14.25;;;;;;;12.97;66.63;101769.00;5084919;28;20463;-76
2023/12/28 11:11:03;;;;;;;39.65;12.65;;;;;;;12.94;66.42;101772.81;5085934;28;20054;-75